sensor_id;sensor_type;location;lat;lon;timestamp;P1;durP1;ratioP1;P2;durP2;ratioP2
11998;SDS011;40817;51.520;9.954;2023-02-28T00:01:30;3.45;;;1.05;;
11998;SDS011;40817;51.520;9.954;2023-02-28T00:04:01;2.28;;;1.17;;
11998;SDS011;40817;51.520;9.954;2023-02-28T00:06:29;1.90;;;1.02;;
11998;SDS011;40817;51.520;9.954;2023-02-28T00:08:56;2.17;;;1.02;;
11998;SDS011;40817;51.520;9.954;2023-02-28T00:11:24;3.47;;;1.25;;
11998;SDS011;40817;51.520;9.954;2023-02-28T00:13:51;1.35;;;0.90;;
11998;SDS011;40817;51.520;9.954;2023-02-28T00:16:20;3.85;;;1.25;;
11998;SDS011;40817;51.520;9.954;2023-02-28T00:18:49;2.38;;;1.10;;
11998;SDS011;40817;51.520;9.954;2023-02-28T00:21:19;2.03;;;0.90;;
11998;SDS011;40817;51.520;9.954;2023-02-28T00:23:48;2.78;;;1.42;;
11998;SDS011;40817;51.520;9.954;2023-02-28T00:26:16;1.63;;;0.95;;
11998;SDS011;40817;51.520;9.954;2023-02-28T00:28:44;3.70;;;1.20;;
11998;SDS011;40817;51.520;9.954;2023-02-28T00:31:12;1.85;;;0.98;;
11998;SDS011;40817;51.520;9.954;2023-02-28T00:33:39;2.60;;;1.20;;
11998;SDS011;40817;51.520;9.954;2023-02-28T00:36:08;1.58;;;1.10;;
11998;SDS011;40817;51.520;9.954;2023-02-28T00:38:39;1.58;;;0.82;;
11998;SDS011;40817;51.520;9.954;2023-02-28T00:41:07;1.92;;;1.00;;
11998;SDS011;40817;51.520;9.954;2023-02-28T00:43:36;2.10;;;1.17;;
11998;SDS011;40817;51.520;9.954;2023-02-28T00:46:06;2.28;;;0.93;;
11998;SDS011;40817;51.520;9.954;2023-02-28T00:48:34;2.53;;;0.95;;
11998;SDS011;40817;51.520;9.954;2023-02-28T00:51:02;2.35;;;1.00;;
11998;SDS011;40817;51.520;9.954;2023-02-28T00:53:31;4.90;;;1.30;;
11998;SDS011;40817;51.520;9.954;2023-02-28T00:56:00;2.58;;;1.13;;
11998;SDS011;40817;51.520;9.954;2023-02-28T00:58:28;2.63;;;1.02;;
11998;SDS011;40817;51.520;9.954;2023-02-28T01:00:56;1.33;;;0.90;;
11998;SDS011;40817;51.520;9.954;2023-02-28T01:03:23;2.25;;;1.10;;
11998;SDS011;40817;51.520;9.954;2023-02-28T01:05:51;1.55;;;0.90;;
11998;SDS011;40817;51.520;9.954;2023-02-28T01:08:19;1.50;;;1.00;;
11998;SDS011;40817;51.520;9.954;2023-02-28T01:10:47;2.00;;;1.02;;
11998;SDS011;40817;51.520;9.954;2023-02-28T01:13:16;2.70;;;1.00;;
11998;SDS011;40817;51.520;9.954;2023-02-28T01:15:45;2.22;;;1.10;;
11998;SDS011;40817;51.520;9.954;2023-02-28T01:18:18;1.52;;;0.95;;
11998;SDS011;40817;51.520;9.954;2023-02-28T01:20:47;2.90;;;1.05;;
11998;SDS011;40817;51.520;9.954;2023-02-28T01:23:16;2.28;;;1.02;;
11998;SDS011;40817;51.520;9.954;2023-02-28T01:25:45;2.85;;;1.00;;
11998;SDS011;40817;51.520;9.954;2023-02-28T01:28:12;2.53;;;0.88;;
11998;SDS011;40817;51.520;9.954;2023-02-28T01:30:41;3.03;;;1.30;;
11998;SDS011;40817;51.520;9.954;2023-02-28T01:33:09;1.75;;;0.80;;
11998;SDS011;40817;51.520;9.954;2023-02-28T01:35:36;3.28;;;1.10;;
11998;SDS011;40817;51.520;9.954;2023-02-28T01:38:04;1.90;;;1.20;;
11998;SDS011;40817;51.520;9.954;2023-02-28T01:40:31;1.85;;;1.00;;
11998;SDS011;40817;51.520;9.954;2023-02-28T01:42:59;2.45;;;0.93;;
11998;SDS011;40817;51.520;9.954;2023-02-28T01:45:27;2.20;;;1.73;;
11998;SDS011;40817;51.520;9.954;2023-02-28T01:47:59;4.13;;;1.00;;
11998;SDS011;40817;51.520;9.954;2023-02-28T01:50:34;2.42;;;1.23;;
11998;SDS011;40817;51.520;9.954;2023-02-28T01:53:06;1.55;;;0.90;;
11998;SDS011;40817;51.520;9.954;2023-02-28T01:55:39;1.60;;;0.90;;
11998;SDS011;40817;51.520;9.954;2023-02-28T01:58:09;4.55;;;3.00;;
11998;SDS011;40817;51.520;9.954;2023-02-28T02:00:37;3.10;;;0.88;;
11998;SDS011;40817;51.520;9.954;2023-02-28T02:03:08;2.38;;;0.90;;
11998;SDS011;40817;51.520;9.954;2023-02-28T02:05:40;2.83;;;1.00;;
11998;SDS011;40817;51.520;9.954;2023-02-28T02:08:13;1.98;;;1.00;;
11998;SDS011;40817;51.520;9.954;2023-02-28T02:10:46;1.85;;;0.98;;
11998;SDS011;40817;51.520;9.954;2023-02-28T02:13:25;2.13;;;1.02;;
11998;SDS011;40817;51.520;9.954;2023-02-28T02:16:28;1.10;;;0.90;;
11998;SDS011;40817;51.520;9.954;2023-02-28T02:19:20;2.95;;;1.33;;
11998;SDS011;40817;51.520;9.954;2023-02-28T02:22:49;1.27;;;0.95;;
11998;SDS011;40817;51.520;9.954;2023-02-28T02:25:53;1.55;;;0.80;;
11998;SDS011;40817;51.520;9.954;2023-02-28T02:28:35;1.60;;;0.90;;
11998;SDS011;40817;51.520;9.954;2023-02-28T02:35:30;2.15;;;1.10;;
11998;SDS011;40817;51.520;9.954;2023-02-28T02:38:07;3.08;;;1.13;;
11998;SDS011;40817;51.520;9.954;2023-02-28T02:40:46;2.72;;;2.15;;
11998;SDS011;40817;51.520;9.954;2023-02-28T02:43:24;3.10;;;1.20;;
11998;SDS011;40817;51.520;9.954;2023-02-28T02:45:59;1.33;;;0.90;;
11998;SDS011;40817;51.520;9.954;2023-02-28T02:48:34;1.80;;;1.10;;
11998;SDS011;40817;51.520;9.954;2023-02-28T02:51:07;1.77;;;0.90;;
11998;SDS011;40817;51.520;9.954;2023-02-28T02:53:40;2.20;;;0.90;;
11998;SDS011;40817;51.520;9.954;2023-02-28T02:56:14;2.20;;;0.80;;
11998;SDS011;40817;51.520;9.954;2023-02-28T02:58:45;1.45;;;0.75;;
11998;SDS011;40817;51.520;9.954;2023-02-28T03:01:17;2.35;;;1.10;;
11998;SDS011;40817;51.520;9.954;2023-02-28T03:03:52;1.40;;;0.80;;
11998;SDS011;40817;51.520;9.954;2023-02-28T03:06:25;2.45;;;0.88;;
11998;SDS011;40817;51.520;9.954;2023-02-28T03:08:53;2.97;;;1.02;;
11998;SDS011;40817;51.520;9.954;2023-02-28T03:11:20;1.20;;;0.95;;
11998;SDS011;40817;51.520;9.954;2023-02-28T03:13:52;2.13;;;1.13;;
11998;SDS011;40817;51.520;9.954;2023-02-28T03:16:53;3.08;;;1.33;;
11998;SDS011;40817;51.520;9.954;2023-02-28T03:19:45;2.78;;;1.00;;
11998;SDS011;40817;51.520;9.954;2023-02-28T03:22:35;4.63;;;1.30;;
11998;SDS011;40817;51.520;9.954;2023-02-28T03:25:20;1.65;;;1.23;;
11998;SDS011;40817;51.520;9.954;2023-02-28T03:28:02;1.63;;;0.77;;
11998;SDS011;40817;51.520;9.954;2023-02-28T03:30:42;3.15;;;1.40;;
11998;SDS011;40817;51.520;9.954;2023-02-28T03:33:19;1.77;;;1.10;;
11998;SDS011;40817;51.520;9.954;2023-02-28T03:35:52;2.15;;;1.17;;
11998;SDS011;40817;51.520;9.954;2023-02-28T03:38:27;1.80;;;0.90;;
11998;SDS011;40817;51.520;9.954;2023-02-28T03:43:38;3.22;;;1.55;;
11998;SDS011;40817;51.520;9.954;2023-02-28T03:46:15;2.53;;;1.23;;
11998;SDS011;40817;51.520;9.954;2023-02-28T03:48:49;1.60;;;0.80;;
11998;SDS011;40817;51.520;9.954;2023-02-28T03:51:22;2.30;;;1.30;;
11998;SDS011;40817;51.520;9.954;2023-02-28T03:53:56;1.95;;;1.05;;
11998;SDS011;40817;51.520;9.954;2023-02-28T03:56:31;3.85;;;1.42;;
11998;SDS011;40817;51.520;9.954;2023-02-28T03:59:06;2.95;;;1.08;;
11998;SDS011;40817;51.520;9.954;2023-02-28T04:01:40;2.97;;;1.10;;
11998;SDS011;40817;51.520;9.954;2023-02-28T04:04:30;2.33;;;0.90;;
11998;SDS011;40817;51.520;9.954;2023-02-28T04:07:18;1.85;;;1.10;;
11998;SDS011;40817;51.520;9.954;2023-02-28T04:12:37;2.03;;;1.10;;
11998;SDS011;40817;51.520;9.954;2023-02-28T04:15:05;2.78;;;0.88;;
11998;SDS011;40817;51.520;9.954;2023-02-28T04:17:35;1.88;;;1.00;;
11998;SDS011;40817;51.520;9.954;2023-02-28T04:20:03;1.80;;;0.95;;
11998;SDS011;40817;51.520;9.954;2023-02-28T04:22:35;2.75;;;0.80;;
11998;SDS011;40817;51.520;9.954;2023-02-28T04:25:03;1.73;;;0.98;;
11998;SDS011;40817;51.520;9.954;2023-02-28T04:27:34;2.60;;;1.38;;
11998;SDS011;40817;51.520;9.954;2023-02-28T04:30:10;1.40;;;1.00;;
11998;SDS011;40817;51.520;9.954;2023-02-28T04:32:38;1.95;;;1.20;;
11998;SDS011;40817;51.520;9.954;2023-02-28T04:35:06;1.52;;;1.05;;
11998;SDS011;40817;51.520;9.954;2023-02-28T04:37:35;4.15;;;1.60;;
11998;SDS011;40817;51.520;9.954;2023-02-28T04:40:02;3.53;;;1.02;;
11998;SDS011;40817;51.520;9.954;2023-02-28T04:42:33;1.98;;;0.90;;
11998;SDS011;40817;51.520;9.954;2023-02-28T04:45:01;4.20;;;1.05;;
11998;SDS011;40817;51.520;9.954;2023-02-28T04:47:29;2.45;;;0.80;;
11998;SDS011;40817;51.520;9.954;2023-02-28T04:49:57;2.47;;;0.90;;
11998;SDS011;40817;51.520;9.954;2023-02-28T04:52:25;2.10;;;1.10;;
11998;SDS011;40817;51.520;9.954;2023-02-28T04:54:54;2.20;;;1.20;;
11998;SDS011;40817;51.520;9.954;2023-02-28T04:57:21;6.43;;;3.10;;
11998;SDS011;40817;51.520;9.954;2023-02-28T04:59:50;4.20;;;1.73;;
11998;SDS011;40817;51.520;9.954;2023-02-28T05:02:18;4.45;;;1.40;;
11998;SDS011;40817;51.520;9.954;2023-02-28T05:04:46;2.97;;;1.23;;
11998;SDS011;40817;51.520;9.954;2023-02-28T05:07:13;3.35;;;1.30;;
11998;SDS011;40817;51.520;9.954;2023-02-28T05:09:41;2.65;;;1.13;;
11998;SDS011;40817;51.520;9.954;2023-02-28T05:12:08;4.93;;;1.77;;
11998;SDS011;40817;51.520;9.954;2023-02-28T05:14:36;3.03;;;1.20;;
11998;SDS011;40817;51.520;9.954;2023-02-28T05:17:05;3.47;;;1.25;;
11998;SDS011;40817;51.520;9.954;2023-02-28T05:19:33;1.85;;;1.00;;
11998;SDS011;40817;51.520;9.954;2023-02-28T05:22:00;5.10;;;1.17;;
11998;SDS011;40817;51.520;9.954;2023-02-28T05:24:28;1.48;;;0.88;;
11998;SDS011;40817;51.520;9.954;2023-02-28T05:26:56;2.45;;;1.02;;
11998;SDS011;40817;51.520;9.954;2023-02-28T05:29:26;5.70;;;1.10;;
11998;SDS011;40817;51.520;9.954;2023-02-28T05:31:53;1.80;;;1.10;;
11998;SDS011;40817;51.520;9.954;2023-02-28T05:34:22;1.38;;;0.85;;
11998;SDS011;40817;51.520;9.954;2023-02-28T05:36:52;2.35;;;1.10;;
11998;SDS011;40817;51.520;9.954;2023-02-28T05:39:20;2.35;;;1.00;;
11998;SDS011;40817;51.520;9.954;2023-02-28T05:41:48;2.97;;;1.17;;
11998;SDS011;40817;51.520;9.954;2023-02-28T05:44:15;3.40;;;1.30;;
11998;SDS011;40817;51.520;9.954;2023-02-28T05:46:45;3.10;;;1.65;;
11998;SDS011;40817;51.520;9.954;2023-02-28T05:49:12;10.70;;;1.30;;
11998;SDS011;40817;51.520;9.954;2023-02-28T05:51:41;2.72;;;1.60;;
11998;SDS011;40817;51.520;9.954;2023-02-28T05:54:12;2.78;;;1.20;;
11998;SDS011;40817;51.520;9.954;2023-02-28T05:56:41;2.65;;;1.25;;
11998;SDS011;40817;51.520;9.954;2023-02-28T05:59:11;2.40;;;1.35;;
11998;SDS011;40817;51.520;9.954;2023-02-28T06:01:40;2.78;;;1.00;;
11998;SDS011;40817;51.520;9.954;2023-02-28T06:04:13;3.45;;;1.92;;
11998;SDS011;40817;51.520;9.954;2023-02-28T06:06:48;7.20;;;1.70;;
11998;SDS011;40817;51.520;9.954;2023-02-28T06:09:17;4.13;;;1.67;;
11998;SDS011;40817;51.520;9.954;2023-02-28T06:11:45;2.80;;;1.40;;
11998;SDS011;40817;51.520;9.954;2023-02-28T06:14:14;3.92;;;1.85;;
11998;SDS011;40817;51.520;9.954;2023-02-28T06:16:44;3.35;;;1.20;;
11998;SDS011;40817;51.520;9.954;2023-02-28T06:19:11;2.85;;;1.55;;
11998;SDS011;40817;51.520;9.954;2023-02-28T06:21:41;2.50;;;1.15;;
11998;SDS011;40817;51.520;9.954;2023-02-28T06:24:11;4.32;;;1.90;;
11998;SDS011;40817;51.520;9.954;2023-02-28T06:26:40;5.22;;;2.33;;
11998;SDS011;40817;51.520;9.954;2023-02-28T06:29:07;3.70;;;1.38;;
11998;SDS011;40817;51.520;9.954;2023-02-28T06:31:34;2.22;;;1.40;;
11998;SDS011;40817;51.520;9.954;2023-02-28T06:34:03;4.88;;;1.30;;
11998;SDS011;40817;51.520;9.954;2023-02-28T06:36:31;4.78;;;1.30;;
11998;SDS011;40817;51.520;9.954;2023-02-28T06:38:59;3.70;;;1.73;;
11998;SDS011;40817;51.520;9.954;2023-02-28T06:41:28;4.40;;;1.77;;
11998;SDS011;40817;51.520;9.954;2023-02-28T06:43:55;2.58;;;1.48;;
11998;SDS011;40817;51.520;9.954;2023-02-28T06:46:23;7.20;;;1.80;;
11998;SDS011;40817;51.520;9.954;2023-02-28T06:48:51;3.17;;;1.70;;
11998;SDS011;40817;51.520;9.954;2023-02-28T06:51:19;1.88;;;1.20;;
11998;SDS011;40817;51.520;9.954;2023-02-28T06:53:50;2.97;;;1.58;;
11998;SDS011;40817;51.520;9.954;2023-02-28T06:56:18;2.65;;;1.30;;
11998;SDS011;40817;51.520;9.954;2023-02-28T06:58:48;7.68;;;2.28;;
11998;SDS011;40817;51.520;9.954;2023-02-28T07:01:18;3.63;;;1.90;;
11998;SDS011;40817;51.520;9.954;2023-02-28T07:03:48;3.80;;;1.40;;
11998;SDS011;40817;51.520;9.954;2023-02-28T07:06:17;6.38;;;1.73;;
11998;SDS011;40817;51.520;9.954;2023-02-28T07:08:45;4.18;;;1.40;;
11998;SDS011;40817;51.520;9.954;2023-02-28T07:11:14;5.07;;;2.17;;
11998;SDS011;40817;51.520;9.954;2023-02-28T07:13:42;4.38;;;2.53;;
11998;SDS011;40817;51.520;9.954;2023-02-28T07:16:11;5.32;;;2.60;;
11998;SDS011;40817;51.520;9.954;2023-02-28T07:18:39;3.00;;;2.03;;
11998;SDS011;40817;51.520;9.954;2023-02-28T07:21:07;3.78;;;1.95;;
11998;SDS011;40817;51.520;9.954;2023-02-28T07:23:36;5.05;;;1.70;;
11998;SDS011;40817;51.520;9.954;2023-02-28T07:26:05;5.35;;;1.70;;
11998;SDS011;40817;51.520;9.954;2023-02-28T07:28:36;6.93;;;2.20;;
11998;SDS011;40817;51.520;9.954;2023-02-28T07:31:04;5.22;;;1.80;;
11998;SDS011;40817;51.520;9.954;2023-02-28T07:33:34;4.10;;;1.65;;
11998;SDS011;40817;51.520;9.954;2023-02-28T07:36:02;5.18;;;1.95;;
11998;SDS011;40817;51.520;9.954;2023-02-28T07:38:33;5.53;;;2.35;;
11998;SDS011;40817;51.520;9.954;2023-02-28T07:41:01;3.75;;;1.80;;
11998;SDS011;40817;51.520;9.954;2023-02-28T07:43:30;3.90;;;1.65;;
11998;SDS011;40817;51.520;9.954;2023-02-28T07:46:00;3.03;;;1.50;;
11998;SDS011;40817;51.520;9.954;2023-02-28T07:48:30;4.05;;;1.70;;
11998;SDS011;40817;51.520;9.954;2023-02-28T07:51:00;3.28;;;1.63;;
11998;SDS011;40817;51.520;9.954;2023-02-28T07:53:27;4.15;;;1.52;;
11998;SDS011;40817;51.520;9.954;2023-02-28T07:55:56;2.05;;;1.20;;
11998;SDS011;40817;51.520;9.954;2023-02-28T07:58:26;3.10;;;1.40;;
11998;SDS011;40817;51.520;9.954;2023-02-28T08:00:55;2.47;;;1.33;;
11998;SDS011;40817;51.520;9.954;2023-02-28T08:03:23;3.28;;;1.50;;
11998;SDS011;40817;51.520;9.954;2023-02-28T08:05:51;3.63;;;1.52;;
11998;SDS011;40817;51.520;9.954;2023-02-28T08:08:20;3.75;;;1.85;;
11998;SDS011;40817;51.520;9.954;2023-02-28T08:10:47;4.00;;;1.70;;
11998;SDS011;40817;51.520;9.954;2023-02-28T08:13:15;3.20;;;1.80;;
11998;SDS011;40817;51.520;9.954;2023-02-28T08:15:43;2.90;;;1.70;;
11998;SDS011;40817;51.520;9.954;2023-02-28T08:18:18;5.07;;;1.65;;
11998;SDS011;40817;51.520;9.954;2023-02-28T08:20:46;5.55;;;2.00;;
11998;SDS011;40817;51.520;9.954;2023-02-28T08:23:14;2.50;;;1.65;;
11998;SDS011;40817;51.520;9.954;2023-02-28T08:25:43;3.72;;;2.40;;
11998;SDS011;40817;51.520;9.954;2023-02-28T08:28:11;3.15;;;2.00;;
11998;SDS011;40817;51.520;9.954;2023-02-28T08:30:39;4.22;;;1.98;;
11998;SDS011;40817;51.520;9.954;2023-02-28T08:33:06;3.60;;;1.90;;
11998;SDS011;40817;51.520;9.954;2023-02-28T08:35:35;3.80;;;2.05;;
11998;SDS011;40817;51.520;9.954;2023-02-28T08:38:03;3.40;;;2.22;;
11998;SDS011;40817;51.520;9.954;2023-02-28T08:40:31;3.78;;;2.00;;
11998;SDS011;40817;51.520;9.954;2023-02-28T08:43:00;3.60;;;2.15;;
11998;SDS011;40817;51.520;9.954;2023-02-28T08:45:27;3.85;;;1.88;;
11998;SDS011;40817;51.520;9.954;2023-02-28T08:47:55;4.95;;;2.25;;
11998;SDS011;40817;51.520;9.954;2023-02-28T08:50:23;4.47;;;2.20;;
11998;SDS011;40817;51.520;9.954;2023-02-28T08:52:51;3.60;;;2.10;;
11998;SDS011;40817;51.520;9.954;2023-02-28T08:55:19;4.03;;;2.35;;
11998;SDS011;40817;51.520;9.954;2023-02-28T08:57:46;3.63;;;2.65;;
11998;SDS011;40817;51.520;9.954;2023-02-28T09:00:16;4.78;;;2.55;;
11998;SDS011;40817;51.520;9.954;2023-02-28T09:02:44;4.78;;;2.60;;
11998;SDS011;40817;51.520;9.954;2023-02-28T09:05:12;6.07;;;2.17;;
11998;SDS011;40817;51.520;9.954;2023-02-28T09:07:42;7.30;;;2.38;;
11998;SDS011;40817;51.520;9.954;2023-02-28T09:10:10;4.10;;;2.40;;
11998;SDS011;40817;51.520;9.954;2023-02-28T09:12:38;6.28;;;2.63;;
11998;SDS011;40817;51.520;9.954;2023-02-28T09:15:06;4.63;;;2.70;;
11998;SDS011;40817;51.520;9.954;2023-02-28T09:17:36;3.30;;;2.25;;
11998;SDS011;40817;51.520;9.954;2023-02-28T09:20:04;3.78;;;2.35;;
11998;SDS011;40817;51.520;9.954;2023-02-28T09:22:34;3.70;;;2.33;;
11998;SDS011;40817;51.520;9.954;2023-02-28T09:25:02;5.45;;;3.05;;
11998;SDS011;40817;51.520;9.954;2023-02-28T09:27:30;3.83;;;2.38;;
11998;SDS011;40817;51.520;9.954;2023-02-28T09:29:58;4.28;;;2.47;;
11998;SDS011;40817;51.520;9.954;2023-02-28T09:32:27;4.90;;;2.20;;
11998;SDS011;40817;51.520;9.954;2023-02-28T09:34:56;4.68;;;2.60;;
11998;SDS011;40817;51.520;9.954;2023-02-28T09:37:24;4.30;;;2.15;;
11998;SDS011;40817;51.520;9.954;2023-02-28T09:39:54;6.18;;;2.20;;
11998;SDS011;40817;51.520;9.954;2023-02-28T09:42:23;4.57;;;2.33;;
11998;SDS011;40817;51.520;9.954;2023-02-28T09:44:57;4.38;;;2.50;;
11998;SDS011;40817;51.520;9.954;2023-02-28T09:47:27;2.75;;;1.80;;
11998;SDS011;40817;51.520;9.954;2023-02-28T09:50:03;5.82;;;2.40;;
11998;SDS011;40817;51.520;9.954;2023-02-28T09:52:46;3.88;;;2.92;;
11998;SDS011;40817;51.520;9.954;2023-02-28T09:55:19;4.20;;;2.33;;
11998;SDS011;40817;51.520;9.954;2023-02-28T09:58:04;3.50;;;2.35;;
11998;SDS011;40817;51.520;9.954;2023-02-28T10:00:38;4.82;;;2.42;;
11998;SDS011;40817;51.520;9.954;2023-02-28T10:06:08;4.15;;;2.33;;
11998;SDS011;40817;51.520;9.954;2023-02-28T10:08:46;4.07;;;2.40;;
11998;SDS011;40817;51.520;9.954;2023-02-28T10:11:22;4.63;;;2.38;;
11998;SDS011;40817;51.520;9.954;2023-02-28T10:13:53;3.85;;;2.70;;
11998;SDS011;40817;51.520;9.954;2023-02-28T10:16:32;3.30;;;2.05;;
11998;SDS011;40817;51.520;9.954;2023-02-28T10:19:06;4.45;;;2.80;;
11998;SDS011;40817;51.520;9.954;2023-02-28T10:21:49;4.72;;;2.30;;
11998;SDS011;40817;51.520;9.954;2023-02-28T10:24:26;2.85;;;2.00;;
11998;SDS011;40817;51.520;9.954;2023-02-28T10:27:01;4.38;;;2.50;;
11998;SDS011;40817;51.520;9.954;2023-02-28T10:29:42;4.78;;;2.20;;
11998;SDS011;40817;51.520;9.954;2023-02-28T10:32:18;4.70;;;2.58;;
11998;SDS011;40817;51.520;9.954;2023-02-28T10:34:50;3.92;;;2.65;;
11998;SDS011;40817;51.520;9.954;2023-02-28T10:37:23;3.70;;;2.63;;
11998;SDS011;40817;51.520;9.954;2023-02-28T10:39:50;4.75;;;2.45;;
11998;SDS011;40817;51.520;9.954;2023-02-28T10:42:20;3.83;;;2.10;;
11998;SDS011;40817;51.520;9.954;2023-02-28T10:45:06;4.10;;;2.60;;
11998;SDS011;40817;51.520;9.954;2023-02-28T10:47:42;3.35;;;2.35;;
11998;SDS011;40817;51.520;9.954;2023-02-28T10:50:27;3.42;;;2.40;;
11998;SDS011;40817;51.520;9.954;2023-02-28T10:53:16;6.30;;;2.60;;
11998;SDS011;40817;51.520;9.954;2023-02-28T10:55:58;3.78;;;2.25;;
11998;SDS011;40817;51.520;9.954;2023-02-28T10:58:40;5.22;;;2.47;;
11998;SDS011;40817;51.520;9.954;2023-02-28T11:01:18;5.03;;;2.85;;
11998;SDS011;40817;51.520;9.954;2023-02-28T11:03:50;4.28;;;2.63;;
11998;SDS011;40817;51.520;9.954;2023-02-28T11:06:19;3.92;;;2.80;;
11998;SDS011;40817;51.520;9.954;2023-02-28T11:08:53;4.38;;;2.47;;
11998;SDS011;40817;51.520;9.954;2023-02-28T11:11:24;5.10;;;2.63;;
11998;SDS011;40817;51.520;9.954;2023-02-28T11:13:57;3.22;;;2.42;;
11998;SDS011;40817;51.520;9.954;2023-02-28T11:16:32;3.97;;;2.38;;
11998;SDS011;40817;51.520;9.954;2023-02-28T11:19:02;5.93;;;3.30;;
11998;SDS011;40817;51.520;9.954;2023-02-28T11:21:33;4.13;;;2.33;;
11998;SDS011;40817;51.520;9.954;2023-02-28T11:24:12;4.60;;;2.55;;
11998;SDS011;40817;51.520;9.954;2023-02-28T11:26:49;3.97;;;2.65;;
11998;SDS011;40817;51.520;9.954;2023-02-28T11:29:18;4.00;;;2.30;;
11998;SDS011;40817;51.520;9.954;2023-02-28T11:32:02;4.07;;;2.42;;
11998;SDS011;40817;51.520;9.954;2023-02-28T11:34:42;4.90;;;2.80;;
11998;SDS011;40817;51.520;9.954;2023-02-28T11:37:13;3.58;;;2.50;;
11998;SDS011;40817;51.520;9.954;2023-02-28T11:39:45;4.18;;;2.90;;
11998;SDS011;40817;51.520;9.954;2023-02-28T11:42:23;5.07;;;2.70;;
11998;SDS011;40817;51.520;9.954;2023-02-28T11:45:28;4.43;;;2.83;;
11998;SDS011;40817;51.520;9.954;2023-02-28T11:48:29;3.85;;;2.63;;
11998;SDS011;40817;51.520;9.954;2023-02-28T11:51:11;4.68;;;2.92;;
11998;SDS011;40817;51.520;9.954;2023-02-28T11:54:07;6.28;;;2.85;;
11998;SDS011;40817;51.520;9.954;2023-02-28T11:56:55;5.32;;;2.42;;
11998;SDS011;40817;51.520;9.954;2023-02-28T11:59:39;3.20;;;1.77;;
11998;SDS011;40817;51.520;9.954;2023-02-28T12:02:25;5.43;;;2.60;;
11998;SDS011;40817;51.520;9.954;2023-02-28T12:05:08;3.83;;;2.55;;
11998;SDS011;40817;51.520;9.954;2023-02-28T12:07:57;4.20;;;2.42;;
11998;SDS011;40817;51.520;9.954;2023-02-28T12:10:44;3.92;;;2.40;;
11998;SDS011;40817;51.520;9.954;2023-02-28T12:13:40;4.65;;;2.75;;
11998;SDS011;40817;51.520;9.954;2023-02-28T12:19:21;2.88;;;2.30;;
11998;SDS011;40817;51.520;9.954;2023-02-28T12:22:10;3.92;;;1.95;;
11998;SDS011;40817;51.520;9.954;2023-02-28T12:25:00;3.78;;;2.00;;
11998;SDS011;40817;51.520;9.954;2023-02-28T12:28:16;5.30;;;2.40;;
11998;SDS011;40817;51.520;9.954;2023-02-28T12:30:53;3.45;;;2.28;;
11998;SDS011;40817;51.520;9.954;2023-02-28T12:33:29;4.68;;;2.40;;
11998;SDS011;40817;51.520;9.954;2023-02-28T12:36:05;3.97;;;2.58;;
11998;SDS011;40817;51.520;9.954;2023-02-28T12:38:44;6.10;;;2.47;;
11998;SDS011;40817;51.520;9.954;2023-02-28T12:41:18;4.30;;;2.67;;
11998;SDS011;40817;51.520;9.954;2023-02-28T12:43:55;5.03;;;2.97;;
11998;SDS011;40817;51.520;9.954;2023-02-28T12:46:33;3.60;;;2.45;;
11998;SDS011;40817;51.520;9.954;2023-02-28T12:49:08;4.18;;;2.58;;
11998;SDS011;40817;51.520;9.954;2023-02-28T12:51:41;3.38;;;2.20;;
11998;SDS011;40817;51.520;9.954;2023-02-28T12:54:13;6.32;;;2.60;;
11998;SDS011;40817;51.520;9.954;2023-02-28T12:56:52;4.00;;;2.60;;
11998;SDS011;40817;51.520;9.954;2023-02-28T12:59:33;3.92;;;2.55;;
11998;SDS011;40817;51.520;9.954;2023-02-28T13:02:22;5.38;;;2.50;;
11998;SDS011;40817;51.520;9.954;2023-02-28T13:11:38;3.75;;;2.55;;
11998;SDS011;40817;51.520;9.954;2023-02-28T13:14:18;4.63;;;2.78;;
11998;SDS011;40817;51.520;9.954;2023-02-28T13:16:55;4.57;;;2.30;;
11998;SDS011;40817;51.520;9.954;2023-02-28T13:19:30;6.05;;;3.00;;
11998;SDS011;40817;51.520;9.954;2023-02-28T13:22:03;5.80;;;3.63;;
11998;SDS011;40817;51.520;9.954;2023-02-28T13:24:48;5.97;;;2.90;;
11998;SDS011;40817;51.520;9.954;2023-02-28T13:27:22;4.00;;;2.17;;
11998;SDS011;40817;51.520;9.954;2023-02-28T13:33:30;4.05;;;2.38;;
11998;SDS011;40817;51.520;9.954;2023-02-28T13:36:11;4.90;;;2.50;;
11998;SDS011;40817;51.520;9.954;2023-02-28T13:38:54;4.30;;;2.40;;
11998;SDS011;40817;51.520;9.954;2023-02-28T13:41:46;5.80;;;2.55;;
11998;SDS011;40817;51.520;9.954;2023-02-28T13:44:15;4.47;;;2.63;;
11998;SDS011;40817;51.520;9.954;2023-02-28T13:49:55;4.57;;;2.50;;
11998;SDS011;40817;51.520;9.954;2023-02-28T13:52:51;5.15;;;2.80;;
11998;SDS011;40817;51.520;9.954;2023-02-28T13:55:43;6.32;;;2.60;;
11998;SDS011;40817;51.520;9.954;2023-02-28T13:58:24;4.25;;;2.67;;
11998;SDS011;40817;51.520;9.954;2023-02-28T14:01:14;3.80;;;2.50;;
11998;SDS011;40817;51.520;9.954;2023-02-28T14:04:09;3.87;;;2.80;;
11998;SDS011;40817;51.520;9.954;2023-02-28T14:07:29;5.70;;;3.15;;
11998;SDS011;40817;51.520;9.954;2023-02-28T14:10:20;3.65;;;3.15;;
11998;SDS011;40817;51.520;9.954;2023-02-28T14:16:10;4.20;;;2.80;;
11998;SDS011;40817;51.520;9.954;2023-02-28T14:18:40;5.78;;;3.10;;
11998;SDS011;40817;51.520;9.954;2023-02-28T14:21:16;4.35;;;2.63;;
11998;SDS011;40817;51.520;9.954;2023-02-28T14:27:26;6.20;;;2.92;;
11998;SDS011;40817;51.520;9.954;2023-02-28T14:30:11;4.45;;;2.60;;
11998;SDS011;40817;51.520;9.954;2023-02-28T14:33:29;3.67;;;2.60;;
11998;SDS011;40817;51.520;9.954;2023-02-28T14:36:17;5.28;;;3.15;;
11998;SDS011;40817;51.520;9.954;2023-02-28T14:38:51;5.13;;;3.10;;
11998;SDS011;40817;51.520;9.954;2023-02-28T14:41:23;4.82;;;2.83;;
11998;SDS011;40817;51.520;9.954;2023-02-28T14:44:14;4.55;;;2.88;;
11998;SDS011;40817;51.520;9.954;2023-02-28T14:46:45;6.47;;;3.35;;
11998;SDS011;40817;51.520;9.954;2023-02-28T14:49:19;4.07;;;2.88;;
11998;SDS011;40817;51.520;9.954;2023-02-28T14:52:01;3.88;;;2.97;;
11998;SDS011;40817;51.520;9.954;2023-02-28T14:54:34;6.38;;;3.03;;
11998;SDS011;40817;51.520;9.954;2023-02-28T14:57:03;3.97;;;3.10;;
11998;SDS011;40817;51.520;9.954;2023-02-28T14:59:33;3.67;;;2.80;;
11998;SDS011;40817;51.520;9.954;2023-02-28T15:02:15;5.88;;;3.17;;
11998;SDS011;40817;51.520;9.954;2023-02-28T15:04:53;4.78;;;3.22;;
11998;SDS011;40817;51.520;9.954;2023-02-28T15:10:08;5.00;;;3.20;;
11998;SDS011;40817;51.520;9.954;2023-02-28T15:12:46;6.07;;;2.75;;
11998;SDS011;40817;51.520;9.954;2023-02-28T15:15:22;3.90;;;3.10;;
11998;SDS011;40817;51.520;9.954;2023-02-28T15:17:56;5.28;;;3.63;;
11998;SDS011;40817;51.520;9.954;2023-02-28T15:20:25;5.43;;;3.97;;
11998;SDS011;40817;51.520;9.954;2023-02-28T15:22:55;5.55;;;3.75;;
11998;SDS011;40817;51.520;9.954;2023-02-28T15:25:23;4.35;;;3.10;;
11998;SDS011;40817;51.520;9.954;2023-02-28T15:27:52;5.53;;;3.50;;
11998;SDS011;40817;51.520;9.954;2023-02-28T15:30:25;5.78;;;3.67;;
11998;SDS011;40817;51.520;9.954;2023-02-28T15:33:02;5.18;;;3.20;;
11998;SDS011;40817;51.520;9.954;2023-02-28T15:35:44;7.45;;;4.43;;
11998;SDS011;40817;51.520;9.954;2023-02-28T15:38:14;4.75;;;3.95;;
11998;SDS011;40817;51.520;9.954;2023-02-28T15:40:50;6.05;;;3.28;;
11998;SDS011;40817;51.520;9.954;2023-02-28T15:43:23;5.13;;;3.65;;
11998;SDS011;40817;51.520;9.954;2023-02-28T15:45:56;5.40;;;3.40;;
11998;SDS011;40817;51.520;9.954;2023-02-28T15:48:28;4.20;;;3.08;;
11998;SDS011;40817;51.520;9.954;2023-02-28T15:51:01;4.75;;;3.40;;
11998;SDS011;40817;51.520;9.954;2023-02-28T15:53:35;5.82;;;3.75;;
11998;SDS011;40817;51.520;9.954;2023-02-28T15:56:16;4.70;;;3.50;;
11998;SDS011;40817;51.520;9.954;2023-02-28T15:58:53;6.40;;;3.65;;
11998;SDS011;40817;51.520;9.954;2023-02-28T16:01:25;4.90;;;3.28;;
11998;SDS011;40817;51.520;9.954;2023-02-28T16:03:56;6.03;;;3.45;;
11998;SDS011;40817;51.520;9.954;2023-02-28T16:06:34;5.30;;;3.63;;